메인 페이지
METAR-TAF:

METAR-TAF

공항 :

미들랜드, 텍사스, 미국

위도: 31-56-52N, 경도: 102-12-31W, 고도: 875m

현재 날씨관측

예보는 8분 전, 22:53시(UTC)에 발표되었습니다.
남남동11kt, 순간 최대 풍속 18kt
온도 36°C
습도 27%
기압 1015 hPa
시정: 16.1km
맑음

METAR: KMAF 132253Z 15011G18KT 10SM CLR 36/14 A2996 RMK AO2 SLP090 T03610144

시각: 18:01 (23:01 UTC)

예보

예보는 5 시간 41분 전, 17:20시(UTC)에 발표되었습니다.
예보 대상 시간: 13일 18시부터 14일 18시까지 (UTC)
남남동10kt
시정: 10km
맑음

TAF: KMAF 131720Z 1318/1418 16010KT P6SM SKC

4,000개 이상의 공항 관측 자료 및 예보 (METAR 및 TAF 보고).

지도상에서 검색 가능한 기상관측소가 노란 점과 빨간 점으로 표시되어 있습니다.

기상관측소 명을 보려면 표시 위로 마우스를 이동하세요.

날씨 관측과 예보를 보려면 클릭하세요.

지도 변경 : 확대하려면 엑스 표시가 있는 녹색 버튼, 축소하려면 빼기 표시가 있는 녹색 버튼, 다음 페이지의 지도를 보려면 녹색 화살표를 클릭하세요.


METAR-TAF: